CheckWX is a tool to help pilots better visualize weather data.  It is not intended as a substitute for an official pre-flight weather briefing.

14:15:52 UTC

KBUR METAR
Bob Hope Airport
Burbank, California, USA
Current

23 mins ago

KBUR 151353Z 00000KT 10SM CLR 19/13 A2989 RMK AO2 SLP107 T01940133 $
Observed
Sep-15 @ 13:53 UTC
Visibility
10 SM
Flight Rules
VFR
Cloud Levels
  • Clear skies
Temperature
19°C / 66°F
Dewpoint
13°C / 55°F
Humidity
68%
Altimeter
29.89" Hg
Pressure
1012.22 hPa
Previous

1 hour ago

KBUR 151253Z 00000KT 10SM CLR 19/09 A2988 RMK AO2 SLP103 T01940094 $
Observed
Sep-15 @ 12:53 UTC
Visibility
10 SM
Flight Rules
VFR
Cloud Levels
  • Clear skies
Temperature
19°C / 66°F
Dewpoint
C / 48°F
Humidity
52%
Altimeter
29.88" Hg
Pressure
1011.82 hPa
Previous

2 hours ago

KBUR 151153Z 00000KT 10SM CLR 21/09 A2987 RMK AO2 SLP099 T02060089 10250 20206 56008 $
Observed
Sep-15 @ 11:53 UTC
Visibility
10 SM
Flight Rules
VFR
Cloud Levels
  • Clear skies
Temperature
21°C / 70°F
Dewpoint
C / 48°F
Humidity
46%
Altimeter
29.87" Hg
Pressure
1011.52 hPa